Time;durP1;ratioP1;P1;durP2;ratioP2;P2;SDS_P1;SDS_P2;PMS_P1;PMS_P2;Temp;Humidity;BMP_temperature;BMP_pressure;BME280_temperature;BME280_humidity;BME280_pressure;Samples;Min_cycle;Max_cycle;Signal;HPM_P1;HPM_P2
2023/02/21 02:14:10;;;;;;;4.22;2.92;;;;;;;6.57;59.10;97078.44;5023493;28;20103;-79
2023/02/21 02:16:43;;;;;;;4.70;3.35;;;;;;;6.56;58.75;97071.63;5024531;28;20140;-80
2023/02/21 02:19:49;;;;;;;5.07;3.60;;;;;;;6.55;61.92;97069.16;5016318;28;20064;-79
2023/02/21 02:22:51;;;;;;;5.82;4.35;;;;;;;6.54;59.20;97068.38;5006096;28;20049;-79
2023/02/21 02:25:33;;;;;;;3.72;2.35;;;;;;;6.51;58.81;97067.81;5002973;28;20062;-79
2023/02/21 02:28:20;;;;;;;5.10;3.13;;;;;;;6.46;59.09;97065.66;5016002;28;20054;-79
2023/02/21 02:31:18;;;;;;;5.65;2.83;;;;;;;6.40;58.75;97068.84;5015375;28;20065;-80
2023/02/21 02:34:36;;;;;;;4.78;2.55;;;;;;;6.45;61.25;97066.66;5024918;28;20107;-81
2023/02/21 02:37:12;;;;;;;3.33;2.20;;;;;;;6.43;59.48;97055.59;5017439;28;20073;-79
2023/02/21 02:39:48;;;;;;;2.70;1.85;;;;;;;6.45;60.19;97060.63;5031453;28;20587;-80
2023/02/21 02:42:26;;;;;;;3.10;2.13;;;;;;;6.43;59.71;97058.19;4996173;28;20128;-80
2023/02/21 02:45:03;;;;;;;4.68;2.22;;;;;;;6.40;59.21;97061.88;5032224;28;20055;-79
2023/02/21 02:47:34;;;;;;;3.10;2.35;;;;;;;6.32;59.24;97042.81;5013496;28;20131;-79
2023/02/21 02:50:06;;;;;;;3.28;2.10;;;;;;;6.27;59.51;97047.63;5015214;28;20057;-80
2023/02/21 02:52:35;;;;;;;3.65;2.13;;;;;;;6.26;59.09;97043.41;5032958;28;20141;-78
2023/02/21 02:55:20;;;;;;;4.22;1.50;;;;;;;6.21;58.91;97035.25;5033394;28;20519;-79
2023/02/21 02:57:50;;;;;;;7.97;2.75;;;;;;;6.15;58.88;97040.03;5018957;28;20080;-79
2023/02/21 03:00:18;;;;;;;3.80;2.00;;;;;;;6.14;59.09;97035.84;5016509;28;20112;-79
2023/02/21 03:03:00;;;;;;;3.67;2.15;;;;;;;6.12;59.19;97029.97;5041131;28;20049;-80
2023/02/21 03:05:42;;;;;;;3.60;2.08;;;;;;;6.17;59.18;97030.34;5041951;28;20045;-80
2023/02/21 03:08:21;;;;;;;5.38;2.35;;;;;;;6.22;59.16;97042.06;5036501;28;20573;-79
2023/02/21 03:10:55;;;;;;;3.90;2.15;;;;;;;6.25;59.61;97036.59;5035646;28;20045;-79
2023/02/21 03:13:34;;;;;;;3.00;2.25;;;;;;;6.30;59.52;97039.59;5018520;28;20042;-79
2023/02/21 03:16:10;;;;;;;5.32;2.80;;;;;;;6.31;58.74;97042.00;5019009;28;20072;-80
2023/02/21 03:18:43;;;;;;;3.53;2.20;;;;;;;6.30;58.52;97042.97;5034530;28;20049;-79
2023/02/21 03:21:16;;;;;;;3.88;2.28;;;;;;;6.26;58.30;97043.41;5062201;23;20128;-76
2023/02/21 03:23:46;;;;;;;3.70;2.28;;;;;;;6.23;58.54;97041.94;5052996;28;20140;-76
2023/02/21 03:26:16;;;;;;;4.47;2.42;;;;;;;6.22;58.21;97042.88;5051900;28;20049;-76
2023/02/21 03:28:44;;;;;;;4.10;2.35;;;;;;;6.22;58.68;97042.88;5038957;28;20083;-77
2023/02/21 03:31:16;;;;;;;3.85;1.90;;;;;;;6.24;59.24;97046.16;5034507;28;20056;-76
2023/02/21 03:33:45;;;;;;;3.80;2.28;;;;;;;6.25;58.25;97041.78;5033274;28;20476;-76
2023/02/21 03:36:14;;;;;;;3.55;2.17;;;;;;;6.21;58.20;97048.19;5034199;28;20496;-76
2023/02/21 03:38:42;;;;;;;3.85;1.90;;;;;;;6.21;58.96;97048.19;5032228;28;20049;-76
2023/02/21 03:41:11;;;;;;;4.32;2.08;;;;;;;6.24;59.26;97040.16;5045572;28;20136;-77
2023/02/21 03:43:39;;;;;;;3.67;2.03;;;;;;;6.31;59.53;97051.56;5052748;28;20056;-76
2023/02/21 03:46:07;;;;;;;2.30;2.05;;;;;;;6.35;59.50;97050.31;5050737;28;20041;-76
2023/02/21 03:48:35;;;;;;;4.82;2.58;;;;;;;6.35;58.88;97047.72;5050240;28;20049;-76
2023/02/21 03:51:03;;;;;;;3.72;2.58;;;;;;;6.30;58.70;97050.75;5052324;28;20049;-76
2023/02/21 03:53:32;;;;;;;5.60;2.47;;;;;;;6.24;58.83;97045.34;5039890;28;20046;-76
2023/02/21 03:55:59;;;;;;;8.30;3.35;;;;;;;6.18;59.09;97051.88;5033455;28;20055;-76
2023/02/21 03:58:27;;;;;;;5.78;2.50;;;;;;;6.14;59.62;97046.19;5044375;28;20056;-76
2023/02/21 04:00:54;;;;;;;3.28;1.90;;;;;;;6.09;59.13;97053.56;5051783;28;20056;-76
2023/02/21 04:03:22;;;;;;;3.45;2.10;;;;;;;6.05;58.86;97047.03;5052630;28;20049;-76
2023/02/21 04:05:50;;;;;;;4.82;2.10;;;;;;;6.05;59.99;97052.22;5037044;28;20597;-77
2023/02/21 04:08:17;;;;;;;4.53;2.65;;;;;;;6.03;58.94;97055.91;5033069;28;20049;-76
2023/02/21 04:10:46;;;;;;;2.78;2.08;;;;;;;5.98;60.85;97051.97;5034409;28;20578;-76
2023/02/21 04:13:19;;;;;;;4.05;2.35;;;;;;;6.04;61.00;97054.97;5052558;28;20059;-76
2023/02/21 04:15:46;;;;;;;3.45;1.80;;;;;;;6.09;60.38;97048.38;5037784;28;20474;-75
2023/02/21 04:18:14;;;;;;;3.88;2.10;;;;;;;6.11;59.59;97051.66;5048652;28;20053;-76
2023/02/21 04:20:42;;;;;;;4.13;1.90;;;;;;;6.09;59.50;97056.16;5038950;28;20055;-76
2023/02/21 04:23:09;;;;;;;5.32;1.90;;;;;;;6.10;60.30;97049.19;5032547;28;20060;-76
2023/02/21 04:25:36;;;;;;;3.00;2.13;;;;;;;6.10;59.95;97057.78;5044112;28;20041;-76
2023/02/21 04:28:05;;;;;;;3.97;2.17;;;;;;;6.12;60.59;97053.28;5035416;28;20571;-77
2023/02/21 04:30:33;;;;;;;2.97;2.00;;;;;;;6.15;60.19;97042.63;5042660;28;20049;-76
2023/02/21 04:33:02;;;;;;;2.97;2.03;;;;;;;6.17;59.28;97045.91;5052465;28;20057;-76
2023/02/21 04:35:29;;;;;;;5.82;2.70;;;;;;;6.06;59.27;97042.69;5036544;28;20053;-76
2023/02/21 04:37:57;;;;;;;4.72;2.72;;;;;;;5.94;59.23;97049.75;5045899;28;20083;-76
2023/02/21 04:40:25;;;;;;;5.68;2.20;;;;;;;5.88;59.30;97039.97;5051870;28;20131;-76
2023/02/21 04:42:52;;;;;;;5.07;2.35;;;;;;;5.88;60.06;97039.97;5042803;28;20051;-76
2023/02/21 04:45:21;;;;;;;3.70;2.33;;;;;;;5.89;59.83;97046.78;5046140;28;20064;-76
2023/02/21 04:47:48;;;;;;;8.00;2.85;;;;;;;5.89;59.47;97041.63;5049842;28;20067;-76
2023/02/21 04:50:16;;;;;;;2.97;2.30;;;;;;;5.89;59.29;97042.44;5063870;28;20073;-77
2023/02/21 04:52:44;;;;;;;3.67;2.53;;;;;;;5.93;60.63;97041.19;5042870;28;20064;-76
2023/02/21 04:55:11;;;;;;;5.30;2.67;;;;;;;5.93;59.24;97035.19;5039358;28;20061;-76
2023/02/21 04:57:39;;;;;;;4.50;2.50;;;;;;;5.88;59.54;97037.38;5055172;28;20098;-77
2023/02/21 05:00:07;;;;;;;7.35;2.85;;;;;;;5.84;59.66;97036.88;5042427;28;20071;-76
2023/02/21 05:02:36;;;;;;;5.40;2.45;;;;;;;5.90;61.27;97032.88;5037038;28;20050;-76
2023/02/21 05:05:03;;;;;;;4.70;2.50;;;;;;;5.98;60.53;97030.44;5045642;28;20055;-76
2023/02/21 05:07:31;;;;;;;4.10;2.80;;;;;;;5.97;59.73;97028.81;5037167;28;20665;-76
2023/02/21 05:09:58;;;;;;;3.95;2.67;;;;;;;5.92;59.48;97026.59;5035561;28;20060;-77
2023/02/21 05:12:26;;;;;;;4.78;2.45;;;;;;;5.90;58.96;97027.69;5037105;28;20075;-76
2023/02/21 05:14:53;;;;;;;4.60;2.40;;;;;;;5.84;58.77;97025.66;5037293;28;20051;-76
2023/02/21 05:17:21;;;;;;;14.43;4.50;;;;;;;5.73;58.94;97016.34;5037177;28;20049;-76
2023/02/21 05:19:50;;;;;;;8.35;4.05;;;;;;;5.70;60.26;97014.81;5036011;28;20492;-76
2023/02/21 05:22:19;;;;;;;10.98;5.07;;;;;;;5.70;60.82;97006.25;5034666;28;20056;-77
2023/02/21 05:24:47;;;;;;;9.77;5.18;;;;;;;5.72;61.83;97015.50;5046695;28;20045;-76
2023/02/21 05:27:16;;;;;;;15.02;5.05;;;;;;;5.80;61.42;97007.03;5060221;28;20048;-77
2023/02/21 05:29:46;;;;;;;5.82;3.70;;;;;;;5.86;60.46;97008.22;5054063;28;20042;-77
2023/02/21 05:32:14;;;;;;;5.28;3.20;;;;;;;5.83;59.80;97011.13;5062705;28;20144;-78
2023/02/21 05:34:43;;;;;;;6.30;2.90;;;;;;;5.84;60.22;97007.53;5061465;28;20506;-77
2023/02/21 05:37:12;;;;;;;12.13;3.15;;;;;;;5.81;59.47;97005.25;5042410;28;20056;-77
2023/02/21 05:39:39;;;;;;;5.63;2.58;;;;;;;5.76;60.50;97013.44;5062996;28;20045;-77
2023/02/21 05:42:07;;;;;;;4.40;2.47;;;;;;;5.78;60.39;97008.94;5033628;28;20570;-77
2023/02/21 05:44:35;;;;;;;3.83;2.08;;;;;;;5.80;60.05;97001.84;5055078;28;20083;-77
2023/02/21 05:47:03;;;;;;;4.53;2.80;;;;;;;5.86;59.96;97009.06;5061865;28;20156;-77
2023/02/21 05:49:30;;;;;;;3.75;2.35;;;;;;;5.88;61.14;97014.06;5068513;28;20053;-77
2023/02/21 05:51:58;;;;;;;7.82;3.17;;;;;;;5.85;59.68;97010.00;5049372;28;20056;-77
2023/02/21 05:54:27;;;;;;;5.60;2.97;;;;;;;5.84;60.21;97021.34;5050066;28;20128;-77
2023/02/21 05:56:55;;;;;;;9.65;3.53;;;;;;;5.78;59.91;97019.31;5053797;28;20037;-77
2023/02/21 05:59:23;;;;;;;4.78;2.97;;;;;;;5.70;59.68;97012.22;5061583;28;20057;-77
2023/02/21 06:01:51;;;;;;;4.88;3.72;;;;;;;5.65;60.72;97022.19;5063439;28;20049;-77
2023/02/21 06:04:19;;;;;;;11.43;4.07;;;;;;;5.65;60.66;97017.03;5052612;28;20052;-76
2023/02/21 06:06:46;;;;;;;7.30;3.75;;;;;;;5.62;60.86;97024.25;5044998;28;20041;-77
2023/02/21 06:09:14;;;;;;;8.20;3.88;;;;;;;5.62;61.09;97030.25;5069107;28;20060;-78
2023/02/21 06:11:43;;;;;;;13.00;3.90;;;;;;;5.54;61.03;97032.72;5066463;28;20052;-77
2023/02/21 06:14:15;;;;;;;7.97;4.10;;;;;;;5.55;60.84;97031.75;5044932;28;20696;-77
2023/02/21 06:16:42;;;;;;;8.38;4.93;;;;;;;5.57;60.48;97033.25;5044874;28;20052;-78
2023/02/21 06:19:12;;;;;;;13.20;5.63;;;;;;;5.51;60.81;97027.81;5033599;28;20152;-80
2023/02/21 06:21:40;;;;;;;11.48;5.07;;;;;;;5.49;61.81;97033.13;5023741;28;1009447;-80
2023/02/21 06:24:08;;;;;;;8.45;5.47;;;;;;;5.48;61.24;97033.25;5053806;28;20404;-80
2023/02/21 06:26:37;;;;;;;12.68;5.90;;;;;;;5.39;61.91;97039.28;5053203;28;20073;-80
2023/02/21 06:29:06;;;;;;;19.33;6.10;;;;;;;5.35;61.92;97039.53;5052316;28;20079;-80
2023/02/21 06:31:35;;;;;;;14.07;5.20;;;;;;;5.33;62.03;97033.69;5053059;28;20048;-80
2023/02/21 06:34:03;;;;;;;9.38;4.78;;;;;;;5.36;62.26;97040.38;5052814;28;20049;-80
2023/02/21 06:36:31;;;;;;;7.57;4.10;;;;;;;5.41;62.64;97042.53;5053328;28;20056;-80
2023/02/21 06:38:58;;;;;;;11.77;5.28;;;;;;;5.47;62.52;97031.66;5053040;28;20060;-80
2023/02/21 06:41:28;;;;;;;8.13;4.55;;;;;;;5.53;62.08;97033.66;5054438;28;20502;-80
2023/02/21 06:43:57;;;;;;;11.07;4.47;;;;;;;5.57;62.29;97037.59;5056040;28;20049;-80
2023/02/21 06:46:28;;;;;;;7.15;4.07;;;;;;;5.65;63.31;97039.50;5054729;28;20491;-80
2023/02/21 06:48:56;;;;;;;11.10;3.92;;;;;;;5.74;62.09;97047.22;5053879;28;20045;-80
2023/02/21 06:51:28;;;;;;;13.27;3.70;;;;;;;5.78;61.02;97038.22;5054535;28;20049;-80
2023/02/21 06:53:57;;;;;;;4.85;3.28;;;;;;;5.78;60.83;97046.00;5054324;28;20045;-80
2023/02/21 06:56:25;;;;;;;8.90;3.08;;;;;;;5.77;60.66;97035.78;5054468;28;20045;-80
2023/02/21 06:58:53;;;;;;;7.80;3.90;;;;;;;5.78;60.77;97042.59;5053775;28;20132;-79
2023/02/21 07:01:22;;;;;;;11.93;3.95;;;;;;;5.81;60.61;97044.91;5054427;28;20084;-80
2023/02/21 07:03:52;;;;;;;10.73;4.05;;;;;;;5.85;60.93;97041.06;5054133;28;20103;-80
2023/02/21 07:06:20;;;;;;;27.27;13.90;;;;;;;6.01;61.53;97045.69;5054123;28;20073;-80
2023/02/21 07:08:48;;;;;;;40.35;21.58;;;;;;;6.18;61.03;97044.13;5053544;28;20056;-80
2023/02/21 07:11:18;;;;;;;18.38;10.70;;;;;;;6.29;60.07;97043.13;5053792;28;20057;-80
2023/02/21 07:13:49;;;;;;;23.67;14.80;;;;;;;6.33;59.17;97049.66;5054085;28;20045;-80
2023/02/21 07:16:17;;;;;;;32.17;19.90;;;;;;;6.37;59.33;97051.81;5054028;28;20044;-80
2023/02/21 07:18:45;;;;;;;52.08;29.27;;;;;;;6.45;58.66;97043.31;5052813;28;20040;-80
2023/02/21 07:21:15;;;;;;;40.55;25.00;;;;;;;6.56;58.87;97045.72;5053770;28;20414;-80
2023/02/21 07:23:44;;;;;;;34.15;19.67;;;;;;;6.72;58.09;97049.44;5053826;28;20044;-80
2023/02/21 07:26:11;;;;;;;135.40;28.50;;;;;;;6.84;58.25;97052.63;5053586;28;20053;-80
2023/02/21 07:28:39;;;;;;;103.93;22.63;;;;;;;7.02;58.60;97061.25;5052965;28;20091;-80
2023/02/21 07:31:09;;;;;;;88.97;16.95;;;;;;;7.42;58.56;97052.97;5053741;28;20080;-80
2023/02/21 07:33:37;;;;;;;120.03;17.55;;;;;;;7.98;56.33;97053.53;5068785;28;20450;-80
2023/02/21 07:36:05;;;;;;;101.25;16.95;;;;;;;9.11;53.28;97060.25;5065915;28;20131;-81
2023/02/21 07:38:34;;;;;;;51.60;8.65;;;;;;;9.67;51.62;97056.03;5054181;28;20056;-80
2023/02/21 07:41:03;;;;;;;44.92;8.50;;;;;;;10.21;50.70;97051.03;5053634;28;20057;-80
2023/02/21 07:43:31;;;;;;;55.10;9.57;;;;;;;11.31;48.10;97060.56;5053810;28;20135;-80
2023/02/21 07:45:59;;;;;;;83.95;13.98;;;;;;;11.48;47.16;97054.25;5053909;28;20048;-80
2023/02/21 07:48:27;;;;;;;38.05;7.50;;;;;;;11.96;46.17;97054.00;5052880;28;20136;-80
2023/02/21 07:50:54;;;;;;;9.98;4.85;;;;;;;12.86;44.18;97054.72;5053498;28;20084;-80
2023/02/21 07:53:22;;;;;;;26.35;5.18;;;;;;;12.79;43.75;97059.91;5053326;28;20056;-80
2023/02/21 07:55:51;;;;;;;12.27;4.63;;;;;;;12.24;44.44;97054.16;5053040;28;20495;-80
2023/02/21 07:58:18;;;;;;;8.80;4.10;;;;;;;11.66;45.48;97053.09;5052441;28;20064;-80
2023/02/21 08:00:47;;;;;;;10.63;4.47;;;;;;;11.30;46.52;97048.50;5052994;28;20098;-80
2023/02/21 08:03:15;;;;;;;13.10;4.82;;;;;;;11.75;46.39;97052.84;5052641;28;20049;-80
2023/02/21 08:05:44;;;;;;;11.07;4.70;;;;;;;13.17;43.46;97057.88;5052795;28;20051;-80
2023/02/21 08:08:12;;;;;;;9.30;3.85;;;;;;;13.88;41.61;97058.88;5052085;28;20057;-80
2023/02/21 08:10:40;;;;;;;7.18;4.22;;;;;;;14.15;40.85;97054.63;5052507;28;20076;-78
2023/02/21 08:13:09;;;;;;;17.33;5.15;;;;;;;15.35;38.75;97055.06;5052694;28;20053;-79
2023/02/21 08:15:36;;;;;;;5.30;3.40;;;;;;;16.15;37.16;97041.91;5052792;28;20545;-78
2023/02/21 08:18:04;;;;;;;5.15;3.55;;;;;;;16.14;36.85;97046.38;5052269;28;20048;-78
2023/02/21 08:20:32;;;;;;;7.20;3.33;;;;;;;16.87;35.44;97053.22;5052813;28;20076;-78
2023/02/21 08:22:59;;;;;;;10.43;3.63;;;;;;;17.88;33.96;97051.53;5053264;28;20049;-79
2023/02/21 08:25:27;;;;;;;4.28;2.92;;;;;;;17.87;33.30;97052.56;5052414;28;20096;-78
2023/02/21 08:27:54;;;;;;;7.53;2.70;;;;;;;17.89;33.41;97061.09;5051794;28;20056;-78
2023/02/21 08:30:24;;;;;;;6.78;3.42;;;;;;;18.58;31.92;97060.97;5051986;28;20524;-79
2023/02/21 08:32:51;;;;;;;9.68;3.15;;;;;;;18.99;31.23;97059.50;5052748;28;20053;-78
2023/02/21 08:35:20;;;;;;;2.83;2.45;;;;;;;18.56;32.42;97063.03;5052633;28;20068;-79
2023/02/21 08:37:49;;;;;;;6.63;2.60;;;;;;;18.74;31.71;97057.75;5051878;28;20044;-79
2023/02/21 08:40:19;;;;;;;9.73;3.35;;;;;;;19.02;32.07;97054.56;5052184;28;20053;-79
2023/02/21 08:42:49;;;;;;;6.13;2.45;;;;;;;18.99;31.12;97054.19;5052585;28;20048;-79
2023/02/21 08:45:18;;;;;;;3.95;2.38;;;;;;;18.88;31.53;97059.22;5052194;28;20049;-79
2023/02/21 08:47:48;;;;;;;3.15;2.28;;;;;;;19.05;30.84;97056.75;5051397;28;20048;-79
2023/02/21 08:50:16;;;;;;;5.35;2.85;;;;;;;19.50;30.58;97058.13;5052222;28;20078;-79
2023/02/21 08:52:46;;;;;;;3.90;2.72;;;;;;;19.87;29.28;97056.13;5052308;28;20045;-80
2023/02/21 08:55:13;;;;;;;6.47;2.53;;;;;;;20.09;29.54;97063.50;5052229;28;20164;-80
2023/02/21 08:57:41;;;;;;;2.60;2.08;;;;;;;20.25;29.63;97057.53;5053119;28;20343;-79
2023/02/21 09:00:13;;;;;;;11.45;2.90;;;;;;;20.49;28.59;97060.94;5057995;28;20071;-80
2023/02/21 09:02:40;;;;;;;4.03;2.15;;;;;;;20.68;28.92;97063.44;5069129;28;20055;-80
2023/02/21 09:05:12;;;;;;;10.95;4.07;;;;;;;20.58;28.10;97062.22;5068672;28;20084;-80
2023/02/21 09:07:40;;;;;;;3.75;2.47;;;;;;;20.57;29.14;97060.63;5068467;28;20064;-80
2023/02/21 09:10:09;;;;;;;9.80;2.60;;;;;;;20.46;28.57;97063.25;5067321;28;20132;-81
2023/02/21 09:12:37;;;;;;;6.07;2.50;;;;;;;20.46;29.00;97056.09;5064108;28;20071;-80
2023/02/21 09:15:06;;;;;;;2.45;2.15;;;;;;;20.63;28.66;97056.22;5053312;28;20422;-80
2023/02/21 09:17:34;;;;;;;5.75;2.65;;;;;;;20.77;28.77;97060.22;5052815;28;20132;-80
2023/02/21 09:20:05;;;;;;;4.68;2.40;;;;;;;20.88;28.40;97061.22;5074686;22;20415;-82
2023/02/21 09:22:34;;;;;;;7.82;2.80;;;;;;;20.93;27.94;97063.94;5070995;28;20417;-79
2023/02/21 09:25:03;;;;;;;4.10;2.35;;;;;;;20.92;29.27;97067.63;5073010;28;20139;-79
2023/02/21 09:27:36;;;;;;;3.83;1.90;;;;;;;20.94;28.21;97068.19;5072439;28;20048;-79
2023/02/21 09:30:06;;;;;;;2.85;1.92;;;;;;;20.91;28.61;97071.34;5070899;28;20137;-79
2023/02/21 09:32:35;;;;;;;3.47;2.42;;;;;;;20.83;28.64;97069.06;5051959;28;20059;-79
2023/02/21 09:35:04;;;;;;;7.03;2.28;;;;;;;20.80;28.96;97072.19;5052286;28;20067;-80
2023/02/21 09:37:32;;;;;;;4.15;2.67;;;;;;;20.76;28.80;97068.41;5051919;28;20049;-79
2023/02/21 09:40:01;;;;;;;6.82;2.95;;;;;;;20.75;28.29;97066.75;5051679;28;20073;-81
2023/02/21 09:42:31;;;;;;;11.27;2.90;;;;;;;20.77;28.38;97067.34;5056362;28;20045;-82
2023/02/21 09:44:59;;;;;;;4.35;2.05;;;;;;;20.74;28.60;97062.53;5056435;28;20049;-81
2023/02/21 09:47:35;;;;;;;2.20;1.70;;;;;;;20.78;29.01;97067.13;5055764;28;20132;-79
2023/02/21 09:50:06;;;;;;;2.28;1.52;;;;;;;21.03;29.15;97071.28;5055942;28;20106;-80
2023/02/21 09:52:37;;;;;;;5.35;1.90;;;;;;;21.24;28.13;97075.13;5056337;28;20048;-80
2023/02/21 09:55:14;;;;;;;4.82;1.67;;;;;;;21.31;28.78;97070.47;5055521;28;20483;-80
2023/02/21 09:57:42;;;;;;;2.17;1.50;;;;;;;21.43;27.82;97072.28;5056592;28;20420;-81
2023/02/21 10:00:18;;;;;;;5.00;1.73;;;;;;;21.56;27.53;97061.38;5055439;28;20095;-81
2023/02/21 10:02:57;;;;;;;3.88;1.80;;;;;;;21.76;26.89;97069.66;5055884;28;20136;-81
2023/02/21 10:05:39;;;;;;;5.85;1.98;;;;;;;21.90;26.81;97072.00;5055791;28;20041;-81
2023/02/21 10:08:14;;;;;;;;;;;;;;;22.17;26.71;97062.31;5055412;28;20045;-80
2023/02/21 10:10:47;;;;;;;5.03;1.88;;;;;;;22.26;27.47;97060.06;5055223;28;19925;-81
2023/02/21 10:13:30;;;;;;;8.38;2.33;;;;;;;22.34;26.41;97056.16;5055083;28;20060;-81
2023/02/21 10:16:04;;;;;;;5.07;2.83;;;;;;;22.56;27.19;97056.97;5055538;28;20055;-81
2023/02/21 10:18:39;;;;;;;3.75;1.27;;;;;;;22.85;26.41;97051.47;5055085;28;20053;-81
2023/02/21 10:21:17;;;;;;;3.13;1.88;;;;;;;23.16;25.69;97059.81;5055060;28;20067;-81
2023/02/21 10:23:48;;;;;;;8.10;3.97;;;;;;;23.32;25.90;97050.91;5055259;28;20049;-81
2023/02/21 10:26:23;;;;;;;5.68;3.58;;;;;;;23.47;25.44;97049.44;5054946;28;20541;-81
2023/02/21 10:28:52;;;;;;;5.45;3.08;;;;;;;23.60;25.29;97049.03;5054706;28;20095;-81
2023/02/21 10:31:29;;;;;;;;;;;;;;;23.84;25.37;97057.50;5055347;28;20102;-81
2023/02/21 10:33:59;;;;;;;6.53;2.50;;;;;;;23.79;25.40;97050.28;5054881;28;19974;-81
2023/02/21 10:36:28;;;;;;;7.43;2.38;;;;;;;23.72;25.16;97054.16;5054807;28;20045;-81
2023/02/21 10:39:03;;;;;;;4.90;2.00;;;;;;;23.75;25.17;97048.34;5054532;28;20490;-81
2023/02/21 10:41:39;;;;;;;5.50;2.08;;;;;;;23.90;25.27;97051.16;5054952;28;20425;-81
2023/02/21 10:44:11;;;;;;;3.90;1.80;;;;;;;24.16;24.19;97053.97;5054280;28;20499;-81
2023/02/21 10:46:44;;;;;;;2.33;1.73;;;;;;;24.33;24.21;97048.47;5054610;28;20057;-81
2023/02/21 10:49:23;;;;;;;3.42;1.83;;;;;;;24.43;24.48;97051.19;5054138;28;20531;-82
2023/02/21 10:52:05;;;;;;;3.92;1.90;;;;;;;24.60;23.38;97051.81;5054023;28;20068;-81
2023/02/21 10:54:35;;;;;;;5.35;2.20;;;;;;;24.74;23.74;97048.66;5055307;28;20550;-81
2023/02/21 10:57:08;;;;;;;5.68;2.00;;;;;;;24.85;23.27;97040.44;5053864;28;20072;-81
2023/02/21 10:59:41;;;;;;;5.18;1.63;;;;;;;25.00;23.53;97034.34;5054367;28;20065;-81
2023/02/21 11:02:31;;;;;;;2.63;1.80;;;;;;;25.08;23.27;97039.16;5054071;28;20053;-81
2023/02/21 11:05:14;;;;;;;4.70;1.77;;;;;;;25.30;22.68;97043.50;5054421;28;20110;-81
2023/02/21 11:07:55;;;;;;;8.13;1.85;;;;;;;25.54;22.76;97034.94;5053849;28;20487;-81
2023/02/21 11:10:30;;;;;;;7.57;1.67;;;;;;;25.71;22.97;97035.47;5054036;28;20059;-81
2023/02/21 11:13:15;;;;;;;5.53;1.60;;;;;;;25.70;22.50;97037.34;5054117;28;20041;-81
2023/02/21 11:15:45;;;;;;;3.08;1.25;;;;;;;25.93;23.04;97027.19;5054088;28;20076;-81
2023/02/21 11:18:17;;;;;;;2.00;1.40;;;;;;;26.30;22.42;97026.84;5053970;28;20055;-81
2023/02/21 11:20:47;;;;;;;1.75;1.15;;;;;;;26.74;22.17;97014.66;5053671;28;20057;-82
2023/02/21 11:23:23;;;;;;;3.25;1.00;;;;;;;26.80;20.83;97021.56;5054020;28;20071;-81
2023/02/21 11:26:00;;;;;;;3.17;0.88;;;;;;;26.66;20.63;97018.72;5054330;28;20049;-81
2023/02/21 11:28:31;;;;;;;1.30;0.82;;;;;;;26.55;20.96;97014.44;5054447;28;20128;-81
2023/02/21 11:31:13;;;;;;;5.60;1.38;;;;;;;26.67;20.73;96998.88;5053712;28;20052;-81
2023/02/21 11:33:55;;;;;;;2.67;1.52;;;;;;;26.83;20.66;97002.31;5055540;28;20044;-81
2023/02/21 11:36:29;;;;;;;1.70;0.90;;;;;;;26.84;20.71;96997.75;5053946;28;20068;-81
2023/02/21 11:39:04;;;;;;;2.78;1.17;;;;;;;26.71;20.71;96989.25;5054936;28;20136;-81
2023/02/21 11:41:38;;;;;;;2.65;1.38;;;;;;;26.74;21.00;96989.75;5055202;28;20145;-81
2023/02/21 11:44:30;;;;;;;2.35;1.20;;;;;;;27.05;20.26;96983.16;5053602;28;20458;-81
2023/02/21 11:47:12;;;;;;;1.40;1.02;;;;;;;27.45;20.71;96985.84;5053442;28;20118;-81
2023/02/21 11:49:49;;;;;;;2.17;0.80;;;;;;;27.76;19.95;96970.25;5053091;28;20582;-81
2023/02/21 11:52:23;;;;;;;6.85;1.90;;;;;;;27.84;19.50;96966.97;5053223;28;20063;-82
2023/02/21 11:54:51;;;;;;;2.55;1.40;;;;;;;28.16;19.95;96965.56;5053205;28;20140;-82
2023/02/21 11:57:25;;;;;;;3.60;1.90;;;;;;;28.15;19.46;96961.28;5053735;28;20041;-80
2023/02/21 12:00:07;;;;;;;2.83;1.70;;;;;;;28.06;19.75;96963.03;5052541;28;20106;-80
2023/02/21 12:02:52;;;;;;;1.45;1.35;;;;;;;28.07;20.47;96953.88;5052884;28;20049;-80
2023/02/21 12:05:45;;;;;;;2.58;1.27;;;;;;;28.31;19.88;96954.66;5052140;28;20052;-80
2023/02/21 12:08:37;;;;;;;3.75;1.17;;;;;;;28.50;19.56;96945.88;5052432;28;20048;-80
2023/02/21 12:11:35;;;;;;;3.63;1.45;;;;;;;28.59;19.41;96930.72;5052794;28;20053;-81
2023/02/21 12:14:33;;;;;;;2.10;0.80;;;;;;;28.35;19.21;96928.06;5053460;28;20114;-82
2023/02/21 12:17:20;;;;;;;2.53;1.20;;;;;;;28.01;19.70;96923.66;5041526;28;20055;-80
2023/02/21 12:20:18;;;;;;;5.03;1.20;;;;;;;27.64;20.13;96913.56;5052430;28;20512;-80
2023/02/21 12:23:12;;;;;;;2.25;1.00;;;;;;;27.38;20.21;96913.81;5052942;28;20139;-81
2023/02/21 12:25:53;;;;;;;4.10;1.30;;;;;;;27.03;21.54;96905.00;5053253;28;20063;-82
2023/02/21 12:28:30;;;;;;;1.40;1.15;;;;;;;26.84;22.31;96896.84;5052842;28;20140;-80
2023/02/21 12:31:13;;;;;;;1.75;1.05;;;;;;;26.63;21.86;96890.03;5052527;28;20049;-82
2023/02/21 12:33:51;;;;;;;2.13;0.60;;;;;;;26.44;22.29;96884.50;5052322;28;20053;-80
2023/02/21 12:36:37;;;;;;;1.15;1.00;;;;;;;26.21;22.44;96873.38;5052830;28;20243;-80
2023/02/21 12:39:24;;;;;;;3.55;1.80;;;;;;;26.16;22.17;96873.41;5053146;28;20124;-80
2023/02/21 12:42:10;;;;;;;3.03;1.05;;;;;;;25.88;22.51;96874.88;5051954;28;20419;-79
2023/02/21 12:44:50;;;;;;;3.25;1.70;;;;;;;25.48;22.45;96866.69;5051870;28;20088;-79
2023/02/21 12:47:23;;;;;;;2.30;1.48;;;;;;;25.25;23.08;96859.25;5052361;28;20160;-81
2023/02/21 12:49:58;;;;;;;4.05;1.90;;;;;;;25.06;23.27;96854.44;5051984;28;20045;-81
2023/02/21 12:52:30;;;;;;;2.80;1.75;;;;;;;24.89;23.60;96853.94;5051677;28;20048;-81
2023/02/21 12:55:04;;;;;;;4.43;1.50;;;;;;;24.72;24.39;96853.41;5052540;28;20110;-82
2023/02/21 12:57:41;;;;;;;3.33;2.00;;;;;;;24.53;23.84;96845.91;5052391;28;20095;-81
2023/02/21 13:00:18;;;;;;;2.75;1.08;;;;;;;24.39;24.89;96834.13;5052304;28;20053;-81
2023/02/21 13:02:58;;;;;;;3.33;1.50;;;;;;;24.19;24.76;96841.03;5052876;28;20133;-80
2023/02/21 13:05:38;;;;;;;2.00;1.42;;;;;;;23.98;25.34;96829.50;5052367;28;20049;-81
2023/02/21 13:08:15;;;;;;;4.68;1.20;;;;;;;23.90;25.75;96826.53;5051811;28;20145;-82
2023/02/21 13:11:03;;;;;;;3.17;1.00;;;;;;;23.81;25.78;96813.75;5051778;28;20045;-81
2023/02/21 13:13:33;;;;;;;1.73;1.02;;;;;;;23.70;26.13;96804.06;5051729;28;20057;-80
2023/02/21 13:16:03;;;;;;;2.90;0.70;;;;;;;23.52;26.25;96800.00;5053718;28;20140;-80
2023/02/21 13:18:36;;;;;;;1.95;1.05;;;;;;;23.39;26.15;96798.59;5055912;28;20041;-79
2023/02/21 13:21:14;;;;;;;0.68;0.52;;;;;;;23.30;27.04;96796.69;5055497;28;20537;-81
2023/02/21 13:24:32;;;;;;;2.00;0.68;;;;;;;23.23;26.75;96791.63;5055431;28;20072;-80
2023/02/21 13:27:23;;;;;;;1.42;0.68;;;;;;;23.18;26.77;96784.41;5055425;28;20064;-81
2023/02/21 13:29:50;;;;;;;1.77;0.77;;;;;;;23.08;26.84;96778.22;5038722;28;20499;-81
2023/02/21 13:32:20;;;;;;;2.78;0.80;;;;;;;22.96;27.02;96775.72;5055542;28;20087;-80
2023/02/21 13:34:54;;;;;;;1.17;0.68;;;;;;;22.90;27.07;96772.22;5055530;28;20442;-81
2023/02/21 13:37:27;;;;;;;1.13;0.98;;;;;;;22.87;27.05;96770.09;5055696;28;20053;-82
2023/02/21 13:40:04;;;;;;;0.80;0.73;;;;;;;22.83;26.82;96769.78;5055317;28;20111;-81
2023/02/21 13:42:34;;;;;;;0.73;0.60;;;;;;;22.76;26.86;96760.41;5055215;28;20106;-79
2023/02/21 13:45:16;;;;;;;2.83;0.88;;;;;;;22.62;26.84;96760.06;5055220;28;20055;-81
2023/02/21 13:48:19;;;;;;;1.88;0.70;;;;;;;22.51;27.18;96753.88;5055351;28;20056;-82
2023/02/21 13:50:49;;;;;;;1.40;0.60;;;;;;;22.33;27.01;96748.94;5054996;28;20049;-80
2023/02/21 13:53:20;;;;;;;0.80;0.70;;;;;;;22.08;28.13;96744.16;5055262;28;20139;-81
2023/02/21 13:56:25;;;;;;;2.42;0.88;;;;;;;21.97;28.22;96743.25;5055293;28;20107;-81
2023/02/21 13:58:52;;;;;;;2.30;0.90;;;;;;;21.98;28.07;96739.56;5055108;28;20128;-81
2023/02/21 14:01:38;;;;;;;1.35;0.75;;;;;;;21.93;28.68;96739.50;5055004;28;20484;-79
2023/02/21 14:04:52;;;;;;;1.17;0.60;;;;;;;21.89;28.83;96733.13;5055034;28;20111;-81
2023/02/21 14:07:42;;;;;;;0.80;0.75;;;;;;;21.88;29.53;96729.63;5008729;28;20059;-81
2023/02/21 14:10:22;;;;;;;2.30;0.63;;;;;;;21.87;29.21;96732.56;5055433;28;20553;-81
2023/02/21 14:12:57;;;;;;;1.23;0.60;;;;;;;21.86;29.51;96720.31;5055121;28;20049;-81
2023/02/21 14:15:43;;;;;;;1.60;0.65;;;;;;;21.84;29.16;96722.41;5055161;28;20139;-81
2023/02/21 14:18:19;;;;;;;1.40;0.60;;;;;;;21.77;28.86;96718.09;5054777;28;20053;-82